Battenville, New York
Current Conditions -  °F | °C
As of 12:07 AM on Saturday 25 Oct 2014 (Local Time) from KGFL Reporting Station
Haze Haze  
Wind Chill: 42°   Ceiling: 9000
Heat Index: 42°   Visibility: 3mi
Dew Point: 42°   Wind: 0mph
Humidity: 100%   Direction: NA
Pressure: 29.84"   Gusts: NA
Location:  43.09°N, 73.5018°W
Report Text: KGFL 250407Z AUTO 00000KT 3SM BR OVC090 06/06 A2984 RMK AO2 T00560056
Loading
Personal Weather Stations






























Interactive Weather Map
Tropical Storm Tracking
New forecast layout! Learn more

10-Day Weather Forecast

Advertisements
Track Severe Weather on mobile